createdAt,value
2023-01-19T00:02:55.649Z,4.03
2023-01-19T00:05:57.028Z,3.30
2023-01-19T00:08:58.334Z,4.10
2023-01-19T00:11:59.639Z,3.50
2023-01-19T00:15:01.042Z,3.13
2023-01-19T00:18:02.344Z,4.32
2023-01-19T00:21:03.664Z,4.57
2023-01-19T00:24:04.953Z,3.43
2023-01-19T00:27:06.275Z,3.95
2023-01-19T00:30:07.588Z,3.63
2023-01-19T00:33:08.910Z,3.50
2023-01-19T00:36:10.203Z,3.92
2023-01-19T00:39:11.501Z,4.20
2023-01-19T00:42:12.776Z,3.72
2023-01-19T00:45:14.065Z,2.70
2023-01-19T00:48:15.376Z,3.08
2023-01-19T00:51:16.661Z,3.58
2023-01-19T00:54:17.961Z,3.40
2023-01-19T00:57:19.251Z,3.10
2023-01-19T01:00:20.750Z,3.38
2023-01-19T01:03:22.170Z,3.30
2023-01-19T01:06:23.515Z,3.05
2023-01-19T01:09:24.793Z,3.57
2023-01-19T01:12:26.087Z,3.28
2023-01-19T01:15:27.469Z,4.10
2023-01-19T01:18:28.805Z,3.83
2023-01-19T01:21:30.120Z,3.28
2023-01-19T01:24:31.537Z,3.37
2023-01-19T01:27:32.853Z,3.30
2023-01-19T01:30:34.145Z,3.08
2023-01-19T01:33:41.032Z,3.90
2023-01-19T01:36:43.141Z,3.55
2023-01-19T01:39:44.454Z,3.40
2023-01-19T01:42:45.858Z,3.13
2023-01-19T01:45:47.207Z,2.78
2023-01-19T01:48:48.536Z,3.35
2023-01-19T01:51:49.848Z,3.35
2023-01-19T01:54:51.145Z,2.67
2023-01-19T01:57:52.458Z,3.72
2023-01-19T02:00:53.861Z,3.45
2023-01-19T02:03:55.238Z,3.05
2023-01-19T02:06:56.650Z,2.85
2023-01-19T02:09:57.953Z,3.07
2023-01-19T02:12:59.642Z,3.40
2023-01-19T02:16:01.113Z,2.88
2023-01-19T02:19:02.418Z,3.35
2023-01-19T02:22:03.705Z,2.55
2023-01-19T02:25:05.017Z,3.87
2023-01-19T02:28:06.330Z,2.92
2023-01-19T02:31:07.699Z,3.47
2023-01-19T02:34:09.023Z,3.42
2023-01-19T02:37:10.326Z,3.45
2023-01-19T02:40:11.631Z,2.90
2023-01-19T02:43:12.925Z,2.70
2023-01-19T02:46:14.216Z,3.28
2023-01-19T02:49:15.545Z,2.78
2023-01-19T02:52:16.961Z,3.10
2023-01-19T02:55:18.291Z,2.70
2023-01-19T02:58:19.593Z,3.03
2023-01-19T03:01:20.965Z,4.38
2023-01-19T03:04:22.319Z,2.92
2023-01-19T03:07:23.621Z,2.97
2023-01-19T03:10:24.923Z,3.33
2023-01-19T03:13:26.261Z,2.83
2023-01-19T03:16:27.600Z,2.67
2023-01-19T03:19:28.929Z,2.42
2023-01-19T03:22:30.374Z,2.85
2023-01-19T03:25:31.684Z,2.50
2023-01-19T03:28:32.994Z,2.75
2023-01-19T03:31:34.285Z,2.88
2023-01-19T03:34:35.600Z,2.85
2023-01-19T03:37:36.899Z,2.92
2023-01-19T03:40:38.363Z,3.20
2023-01-19T03:43:39.901Z,3.05
2023-01-19T03:46:41.206Z,2.90
2023-01-19T03:49:42.513Z,3.08
2023-01-19T03:52:43.808Z,2.72
2023-01-19T03:55:45.143Z,2.90
2023-01-19T03:58:46.432Z,3.00
2023-01-19T04:01:47.846Z,2.25
2023-01-19T04:04:49.224Z,2.92
2023-01-19T04:07:50.543Z,2.50
2023-01-19T04:10:51.846Z,2.73
2023-01-19T04:13:53.187Z,2.45
2023-01-19T04:16:54.488Z,2.63
2023-01-19T04:19:55.805Z,2.40
2023-01-19T04:22:57.118Z,2.97
2023-01-19T04:25:58.404Z,2.30
2023-01-19T04:28:59.706Z,2.90
2023-01-19T04:32:01.023Z,2.80
2023-01-19T04:35:02.397Z,2.78
2023-01-19T04:38:03.703Z,3.13
2023-01-19T04:41:05.020Z,2.90
2023-01-19T04:44:06.314Z,2.92
2023-01-19T04:47:07.636Z,2.72
2023-01-19T04:50:08.951Z,2.30
2023-01-19T04:53:10.256Z,2.65
2023-01-19T04:56:11.568Z,3.30
2023-01-19T04:59:12.850Z,3.20
2023-01-19T05:02:14.194Z,3.10
2023-01-19T05:05:15.550Z,2.40
2023-01-19T05:08:16.946Z,2.80
2023-01-19T05:11:18.261Z,2.93
2023-01-19T05:14:19.576Z,2.03
2023-01-19T05:17:20.861Z,2.88
2023-01-19T05:20:22.190Z,2.92
2023-01-19T05:23:23.497Z,3.33
2023-01-19T05:26:24.827Z,2.70
2023-01-19T05:29:26.138Z,2.47
2023-01-19T05:32:27.468Z,3.78
2023-01-19T05:35:35.742Z,3.00
2023-01-19T05:38:37.711Z,4.03
2023-01-19T05:41:39.031Z,2.73
2023-01-19T05:44:40.313Z,6.00
2023-01-19T05:47:41.622Z,3.03
2023-01-19T05:50:42.914Z,4.05
2023-01-19T05:53:44.229Z,3.50
2023-01-19T05:56:45.525Z,4.27
2023-01-19T05:59:46.843Z,4.55
2023-01-19T06:02:48.178Z,4.05
2023-01-19T06:05:49.546Z,3.38
2023-01-19T06:08:50.846Z,6.07
2023-01-19T06:11:52.198Z,4.20
2023-01-19T06:14:53.538Z,3.78
2023-01-19T06:17:54.857Z,4.47
2023-01-19T06:20:56.158Z,3.42
2023-01-19T06:23:57.531Z,3.90
2023-01-19T06:26:58.820Z,3.37
2023-01-19T06:30:00.165Z,3.08
2023-01-19T06:33:01.875Z,2.90
2023-01-19T06:36:03.317Z,3.63
2023-01-19T06:39:04.641Z,4.45
2023-01-19T06:42:05.955Z,3.43
2023-01-19T06:45:07.269Z,4.30
2023-01-19T06:48:08.573Z,6.40
2023-01-19T06:51:09.885Z,7.53
2023-01-19T06:54:11.199Z,11.05
2023-01-19T06:57:12.490Z,17.67
2023-01-19T07:00:13.813Z,22.08
2023-01-19T07:03:15.144Z,17.38
2023-01-19T07:06:16.501Z,23.50
2023-01-19T07:09:17.858Z,26.90
2023-01-19T07:12:19.185Z,23.97
2023-01-19T07:15:20.549Z,24.52
2023-01-19T07:18:21.859Z,24.77
2023-01-19T07:21:23.177Z,20.05
2023-01-19T07:24:24.484Z,17.95
2023-01-19T07:27:25.791Z,10.97
2023-01-19T07:30:27.145Z,20.65
2023-01-19T07:33:28.538Z,15.07
2023-01-19T07:36:29.946Z,20.83
2023-01-19T07:39:31.324Z,13.57
2023-01-19T07:42:32.633Z,15.17
2023-01-19T07:45:33.924Z,19.33
2023-01-19T07:48:35.255Z,19.83
2023-01-19T07:51:36.649Z,18.52
2023-01-19T07:54:38.007Z,21.60
2023-01-19T07:57:39.301Z,17.53
2023-01-19T08:00:40.623Z,13.32
2023-01-19T08:03:41.920Z,15.15
2023-01-19T08:06:43.216Z,15.98
2023-01-19T08:09:44.508Z,17.58
2023-01-19T08:12:45.837Z,11.47
2023-01-19T08:15:47.161Z,16.42
2023-01-19T08:18:48.480Z,9.80
2023-01-19T08:21:49.784Z,9.48
2023-01-19T08:24:51.144Z,9.85
2023-01-19T08:27:52.425Z,6.83
2023-01-19T08:30:53.954Z,8.40
2023-01-19T08:33:55.410Z,10.43
2023-01-19T08:36:56.792Z,14.20
2023-01-19T08:39:58.079Z,7.28
2023-01-19T08:42:59.706Z,10.70
2023-01-19T08:46:01.310Z,12.00
2023-01-19T08:49:02.735Z,7.68
2023-01-19T08:52:04.033Z,26.98
2023-01-19T08:55:05.344Z,102.80
2023-01-19T08:58:06.651Z,51.43
2023-01-19T09:01:08.031Z,48.33
2023-01-19T09:04:09.382Z,43.22
2023-01-19T09:07:10.726Z,24.50
2023-01-19T09:10:12.032Z,25.38
2023-01-19T09:13:13.367Z,19.23
2023-01-19T09:16:14.748Z,23.80
2023-01-19T09:19:16.092Z,20.95
2023-01-19T09:22:17.481Z,17.90
2023-01-19T09:25:18.798Z,22.42
2023-01-19T09:28:20.147Z,20.03
2023-01-19T09:31:21.614Z,15.25
2023-01-19T09:34:23.004Z,21.90
2023-01-19T09:37:24.307Z,15.95
2023-01-19T09:40:25.630Z,17.63
2023-01-19T09:43:26.933Z,19.10
2023-01-19T09:46:28.256Z,12.48
2023-01-19T09:49:29.598Z,13.15
2023-01-19T09:52:30.916Z,11.57
2023-01-19T09:55:32.213Z,13.90
2023-01-19T09:58:33.524Z,10.97
2023-01-19T10:01:35.395Z,11.40
2023-01-19T10:04:36.902Z,21.35
2023-01-19T10:07:38.222Z,49.15
2023-01-19T10:10:39.600Z,43.25
2023-01-19T10:13:40.909Z,27.63
2023-01-19T10:16:42.200Z,25.80
2023-01-19T10:19:45.675Z,20.77
2023-01-19T10:22:47.914Z,21.10
2023-01-19T10:25:49.320Z,20.63
2023-01-19T10:28:50.690Z,16.80
2023-01-19T10:31:52.127Z,14.93
2023-01-19T10:34:53.535Z,16.55
2023-01-19T10:37:54.909Z,11.25
2023-01-19T10:40:56.312Z,13.82
2023-01-19T10:43:57.625Z,9.33
2023-01-19T10:46:58.971Z,13.75
2023-01-19T10:50:00.271Z,16.10
2023-01-19T10:53:03.396Z,10.63
2023-01-19T10:56:05.092Z,13.55
2023-01-19T10:59:06.410Z,14.27
2023-01-19T11:02:07.861Z,16.85
2023-01-19T11:05:09.282Z,13.90
2023-01-19T11:08:10.601Z,13.27
2023-01-19T11:11:11.900Z,13.65
2023-01-19T11:14:13.239Z,10.87
2023-01-19T11:17:14.525Z,10.05
2023-01-19T11:20:15.824Z,9.98
2023-01-19T11:23:17.141Z,18.35
2023-01-19T11:26:18.442Z,16.65
2023-01-19T11:29:19.725Z,10.70
2023-01-19T11:32:21.049Z,12.98
2023-01-19T11:35:22.384Z,10.63
2023-01-19T11:38:23.684Z,78.78
2023-01-19T11:41:24.996Z,48.80
2023-01-19T11:44:26.344Z,32.90
2023-01-19T11:47:27.802Z,28.27
2023-01-19T11:50:29.247Z,30.85
2023-01-19T11:53:30.553Z,31.50
2023-01-19T11:56:31.866Z,21.13
2023-01-19T11:59:33.180Z,16.67
2023-01-19T12:02:34.554Z,31.55
2023-01-19T12:05:35.950Z,15.50
2023-01-19T12:08:37.242Z,13.10
2023-01-19T12:11:38.863Z,9.07
2023-01-19T12:14:40.206Z,12.23
2023-01-19T12:17:41.537Z,11.65
2023-01-19T12:20:42.826Z,10.52
2023-01-19T12:23:44.168Z,13.63
2023-01-19T12:26:45.680Z,10.88
2023-01-19T12:29:46.989Z,13.87
2023-01-19T12:32:48.620Z,12.52
2023-01-19T12:35:49.920Z,12.10
2023-01-19T12:38:51.248Z,13.48
2023-01-19T12:41:52.547Z,13.77
2023-01-19T12:44:53.844Z,10.47
2023-01-19T12:47:55.146Z,9.98
2023-01-19T12:50:56.470Z,10.52
2023-01-19T12:53:57.800Z,12.40
2023-01-19T12:56:59.126Z,13.82
2023-01-19T13:00:00.454Z,8.77
2023-01-19T13:03:01.842Z,9.90
2023-01-19T13:06:03.173Z,9.82
2023-01-19T13:09:04.548Z,11.95
2023-01-19T13:12:05.885Z,12.45
2023-01-19T13:15:07.188Z,10.33
2023-01-19T13:18:08.518Z,10.02
2023-01-19T13:21:09.992Z,15.32
2023-01-19T13:24:11.301Z,10.05
2023-01-19T13:27:12.628Z,9.07
2023-01-19T13:30:13.953Z,8.13
2023-01-19T13:33:15.257Z,9.48
2023-01-19T13:36:16.583Z,13.13
2023-01-19T13:39:18.721Z,8.90
2023-01-19T13:42:20.169Z,10.02
2023-01-19T13:45:21.477Z,14.43
2023-01-19T13:48:22.807Z,14.70
2023-01-19T13:51:24.156Z,7.35
2023-01-19T13:54:25.473Z,9.05
2023-01-19T13:57:26.882Z,8.65
2023-01-19T14:00:28.194Z,9.90
2023-01-19T14:03:29.663Z,23.98
2023-01-19T14:06:31.030Z,33.13
2023-01-19T14:09:32.330Z,47.97
2023-01-19T14:12:33.650Z,30.00
2023-01-19T14:15:34.976Z,24.40
2023-01-19T14:18:36.340Z,27.83
2023-01-19T14:21:37.735Z,15.65
2023-01-19T14:24:39.283Z,23.73
2023-01-19T14:27:40.585Z,15.98
2023-01-19T14:30:41.948Z,20.37
2023-01-19T14:33:43.236Z,14.75
2023-01-19T14:36:44.568Z,12.77
2023-01-19T14:39:45.877Z,14.00
2023-01-19T14:42:47.205Z,16.65
2023-01-19T14:45:48.562Z,14.80
2023-01-19T14:48:49.901Z,19.00
2023-01-19T14:51:51.224Z,20.52
2023-01-19T14:54:52.529Z,30.90
2023-01-19T14:57:53.852Z,26.33
2023-01-19T15:00:55.219Z,13.53
2023-01-19T15:03:56.544Z,18.80
2023-01-19T15:06:57.833Z,15.07
2023-01-19T15:09:59.155Z,18.83
2023-01-19T15:13:00.460Z,15.32
2023-01-19T15:16:01.800Z,18.00
2023-01-19T15:19:03.131Z,15.65
2023-01-19T15:22:04.467Z,10.75
2023-01-19T15:25:05.996Z,11.02
2023-01-19T15:28:07.492Z,13.32
2023-01-19T15:31:08.832Z,17.23
2023-01-19T15:34:10.170Z,12.45
2023-01-19T15:37:11.504Z,18.92
2023-01-19T15:40:12.836Z,53.35
2023-01-19T15:43:14.181Z,76.53
2023-01-19T15:46:15.468Z,71.67
2023-01-19T15:49:16.800Z,82.55
2023-01-19T15:52:18.244Z,133.77
2023-01-19T15:55:19.541Z,78.38
2023-01-19T15:58:20.859Z,56.75
2023-01-19T16:01:22.343Z,41.57
2023-01-19T16:04:23.889Z,40.05
2023-01-19T16:07:25.221Z,37.72
2023-01-19T16:10:26.627Z,45.90
2023-01-19T16:13:28.082Z,32.05
2023-01-19T16:16:29.509Z,26.70
2023-01-19T16:19:30.854Z,27.58
2023-01-19T16:22:32.155Z,35.28
2023-01-19T16:25:33.471Z,23.73
2023-01-19T16:28:34.921Z,23.67
2023-01-19T16:31:36.265Z,17.93
2023-01-19T16:34:37.887Z,9.70
2023-01-19T16:37:39.264Z,9.10
2023-01-19T16:40:40.705Z,8.55
2023-01-19T16:43:42.060Z,10.05
2023-01-19T16:46:43.376Z,12.13
2023-01-19T16:49:44.757Z,8.65
2023-01-19T16:52:46.080Z,8.88
2023-01-19T16:55:47.404Z,7.82
2023-01-19T16:58:48.726Z,8.15
2023-01-19T17:01:50.523Z,6.63
2023-01-19T17:04:52.055Z,10.00
2023-01-19T17:07:53.383Z,10.43
2023-01-19T17:10:54.698Z,7.95
2023-01-19T17:13:56.044Z,9.20
2023-01-19T17:16:57.478Z,7.83
2023-01-19T17:19:59.295Z,12.10
2023-01-19T17:23:00.895Z,6.57
2023-01-19T17:26:02.384Z,6.30
2023-01-19T17:29:04.569Z,7.20
2023-01-19T17:32:07.462Z,7.77
2023-01-19T17:35:09.233Z,7.22
2023-01-19T17:38:11.194Z,8.82
2023-01-19T17:47:53.862Z,7.53
2023-01-19T17:50:55.596Z,8.27
2023-01-19T17:53:57.287Z,6.22
2023-01-19T17:56:59.004Z,6.35
2023-01-19T18:00:00.763Z,6.63
2023-01-19T18:03:03.133Z,7.03
2023-01-19T18:06:05.682Z,7.32
2023-01-19T18:09:07.385Z,6.28
2023-01-19T18:12:09.027Z,8.85
2023-01-19T18:15:10.817Z,7.72
2023-01-19T18:18:12.988Z,6.00
2023-01-19T18:21:14.827Z,7.57
2023-01-19T18:24:16.680Z,7.22
2023-01-19T18:27:19.578Z,6.65
2023-01-19T18:30:24.043Z,5.25
2023-01-19T18:33:25.917Z,7.37
2023-01-19T18:36:27.737Z,7.93
2023-01-19T18:39:29.545Z,8.38
2023-01-19T18:42:31.407Z,6.93
2023-01-19T18:45:33.288Z,7.55
2023-01-19T18:48:36.062Z,5.53
2023-01-19T18:51:37.886Z,7.97
2023-01-19T18:54:39.735Z,8.00
2023-01-19T18:57:41.501Z,6.10
2023-01-19T19:00:47.801Z,8.60
2023-01-19T19:03:49.681Z,9.40
2023-01-19T19:06:51.622Z,6.60
2023-01-19T19:09:53.511Z,6.63
2023-01-19T19:12:58.022Z,8.55
2023-01-19T19:15:59.906Z,8.82
2023-01-19T19:19:02.915Z,4.83
2023-01-19T19:22:04.746Z,5.95
2023-01-19T19:25:06.527Z,8.55
2023-01-19T19:28:08.371Z,6.28
2023-01-19T19:31:10.349Z,6.75
2023-01-19T19:34:11.819Z,6.77
2023-01-19T19:37:13.542Z,7.82
2023-01-19T19:40:15.475Z,5.22
2023-01-19T19:43:17.308Z,6.72
2023-01-19T19:46:19.102Z,7.63
2023-01-19T19:49:21.001Z,6.90
2023-01-19T19:52:22.877Z,6.22
2023-01-19T19:55:24.816Z,7.13
2023-01-19T19:58:30.984Z,5.68
2023-01-19T20:01:34.022Z,5.95
2023-01-19T20:04:36.013Z,6.93
2023-01-19T20:07:37.436Z,6.47
2023-01-19T20:10:39.319Z,6.25
2023-01-19T20:13:41.159Z,7.40
2023-01-19T20:16:43.068Z,6.55
2023-01-19T20:19:44.931Z,5.63
2023-01-19T20:22:46.716Z,6.88
2023-01-19T20:25:48.669Z,6.35
2023-01-19T20:28:50.057Z,6.82
2023-01-19T20:31:51.857Z,6.28
2023-01-19T20:34:53.575Z,6.87
2023-01-19T20:37:55.411Z,6.25
2023-01-19T20:40:57.177Z,6.05
2023-01-19T20:43:58.955Z,5.40
2023-01-19T20:47:00.732Z,6.70
2023-01-19T20:50:02.516Z,7.47
2023-01-19T20:53:05.316Z,6.40
2023-01-19T20:56:07.236Z,6.35
2023-01-19T20:59:08.687Z,6.35
2023-01-19T21:02:10.092Z,6.32
2023-01-19T21:05:11.945Z,5.50
2023-01-19T21:08:13.404Z,6.00
2023-01-19T21:11:14.727Z,5.13
2023-01-19T21:14:16.106Z,5.93
2023-01-19T21:17:17.860Z,6.30
2023-01-19T21:20:19.596Z,5.23
2023-01-19T21:23:21.339Z,5.47
2023-01-19T21:26:23.143Z,5.00
2023-01-19T21:29:24.918Z,5.60
2023-01-19T21:32:26.553Z,6.63
2023-01-19T21:35:27.883Z,5.07
2023-01-19T21:38:29.214Z,5.85
2023-01-19T21:41:30.582Z,6.50
2023-01-19T21:44:31.912Z,5.72
2023-01-19T21:47:33.202Z,6.20
2023-01-19T21:50:34.516Z,5.57
2023-01-19T21:53:35.836Z,5.93
2023-01-19T21:56:37.174Z,6.53
2023-01-19T21:59:38.534Z,5.70
2023-01-19T22:02:40.022Z,7.63
2023-01-19T22:05:41.464Z,6.07
2023-01-19T22:08:42.907Z,5.53
2023-01-19T22:11:44.195Z,6.10
2023-01-19T22:14:45.524Z,8.57
2023-01-19T22:17:46.817Z,5.22
2023-01-19T22:20:48.110Z,5.40
2023-01-19T22:23:49.444Z,6.15
2023-01-19T22:26:50.756Z,5.63
2023-01-19T22:29:52.090Z,7.72
2023-01-19T22:32:53.470Z,5.63
2023-01-19T22:35:54.776Z,5.87
2023-01-19T22:38:56.095Z,5.38
2023-01-19T22:41:57.401Z,4.90
2023-01-19T22:44:58.726Z,4.93
2023-01-19T22:48:00.025Z,4.75
2023-01-19T22:51:01.365Z,4.37
2023-01-19T22:54:02.655Z,5.15
2023-01-19T22:57:03.974Z,5.53
2023-01-19T23:00:05.325Z,5.47
2023-01-19T23:03:06.620Z,4.88
2023-01-19T23:06:07.934Z,5.33
2023-01-19T23:09:09.232Z,6.50
2023-01-19T23:12:10.557Z,4.88
2023-01-19T23:15:12.228Z,4.82
2023-01-19T23:18:13.673Z,5.05
2023-01-19T23:21:14.970Z,5.13
2023-01-19T23:24:16.266Z,5.55
2023-01-19T23:27:17.552Z,4.70
2023-01-19T23:30:18.857Z,5.13
2023-01-19T23:33:20.153Z,4.68
2023-01-19T23:36:21.454Z,4.67
2023-01-19T23:39:22.752Z,5.55
2023-01-19T23:42:24.099Z,5.18
2023-01-19T23:45:25.387Z,4.00
2023-01-19T23:48:26.691Z,4.25
2023-01-19T23:51:27.990Z,4.87
2023-01-19T23:54:29.285Z,6.22
2023-01-19T23:57:30.567Z,5.97
